FYLZ/LUD METAR and TAF weather

Enter ICAO airport designator
Station Type Date Time Source
FYLZ METAR 2020/08/11 07:00 UTC NOAA

FYLZ 110700Z AUTO 12007KT //// // ////// 12/07 Q1022


Station Type Date Time Source
FYLZ Decoded METAR 2020/08/11 07:00 UTC NOAA

Luderitz / Diaz Point, Namibia (FYLZ) 26-41S 015-15E
Aug 11, 2020 - 03:00 AM EDT / 2020.08.11 0700 UTC
Wind: from the ESE (120 degrees) at 8 MPH (7 KT):0
Temperature: 53 F (12 C)
Dew Point: 44 F (7 C)
Relative Humidity: 71%
Pressure (altimeter): 30.18 in. Hg (1022 hPa)
ob: FYLZ 110700Z AUTO 12007KT //// // ////// 12/07 Q1022
cycle: 7

Station Type Date Time Source
FYLZ TAF 2014/11/15 15:19 UTC NOAA

TAF FYLZ 151400Z 1515/1524 18015G28KT CAVOK
BECMG 1518/1520 16020KT

Example: see airport list